sensor_id;sensor_type;location;lat;lon;timestamp;P1;durP1;ratioP1;P2;durP2;ratioP2
20369;SDS011;10344;47.592;9.600;2023-08-30T00:00:35;1.52;;;1.42;;
20369;SDS011;10344;47.592;9.600;2023-08-30T00:03:01;1.70;;;1.57;;
20369;SDS011;10344;47.592;9.600;2023-08-30T00:05:29;1.70;;;1.60;;
20369;SDS011;10344;47.592;9.600;2023-08-30T00:07:55;1.73;;;1.63;;
20369;SDS011;10344;47.592;9.600;2023-08-30T00:10:21;1.52;;;1.42;;
20369;SDS011;10344;47.592;9.600;2023-08-30T00:12:51;1.60;;;1.50;;
20369;SDS011;10344;47.592;9.600;2023-08-30T00:15:21;2.00;;;1.37;;
20369;SDS011;10344;47.592;9.600;2023-08-30T00:17:51;2.13;;;1.35;;
20369;SDS011;10344;47.592;9.600;2023-08-30T00:20:17;1.92;;;1.40;;
20369;SDS011;10344;47.592;9.600;2023-08-30T00:22:48;1.50;;;1.40;;
20369;SDS011;10344;47.592;9.600;2023-08-30T00:25:16;1.50;;;1.40;;
20369;SDS011;10344;47.592;9.600;2023-08-30T00:27:44;1.55;;;1.45;;
20369;SDS011;10344;47.592;9.600;2023-08-30T00:30:12;1.50;;;1.40;;
20369;SDS011;10344;47.592;9.600;2023-08-30T00:32:38;1.70;;;1.60;;
20369;SDS011;10344;47.592;9.600;2023-08-30T00:35:04;2.70;;;1.70;;
20369;SDS011;10344;47.592;9.600;2023-08-30T00:37:32;1.88;;;1.77;;
20369;SDS011;10344;47.592;9.600;2023-08-30T00:39:58;1.50;;;1.40;;
20369;SDS011;10344;47.592;9.600;2023-08-30T00:42:24;2.20;;;1.60;;
20369;SDS011;10344;47.592;9.600;2023-08-30T00:44:52;2.20;;;1.65;;
20369;SDS011;10344;47.592;9.600;2023-08-30T00:47:20;1.77;;;1.67;;
20369;SDS011;10344;47.592;9.600;2023-08-30T00:49:52;1.80;;;1.70;;
20369;SDS011;10344;47.592;9.600;2023-08-30T00:52:24;1.92;;;1.83;;
20369;SDS011;10344;47.592;9.600;2023-08-30T00:54:52;1.60;;;1.50;;
20369;SDS011;10344;47.592;9.600;2023-08-30T00:57:18;1.63;;;1.52;;
20369;SDS011;10344;47.592;9.600;2023-08-30T00:59:44;1.80;;;1.70;;
20369;SDS011;10344;47.592;9.600;2023-08-30T01:02:09;1.60;;;1.50;;
20369;SDS011;10344;47.592;9.600;2023-08-30T01:04:36;1.50;;;1.40;;
20369;SDS011;10344;47.592;9.600;2023-08-30T01:07:07;1.70;;;1.50;;
20369;SDS011;10344;47.592;9.600;2023-08-30T01:09:35;1.60;;;1.50;;
20369;SDS011;10344;47.592;9.600;2023-08-30T01:12:08;1.63;;;1.52;;
20369;SDS011;10344;47.592;9.600;2023-08-30T01:17:18;1.52;;;1.42;;
20369;SDS011;10344;47.592;9.600;2023-08-30T01:19:53;1.70;;;1.60;;
20369;SDS011;10344;47.592;9.600;2023-08-30T01:22:47;1.70;;;1.60;;
20369;SDS011;10344;47.592;9.600;2023-08-30T01:28:13;1.80;;;1.70;;
20369;SDS011;10344;47.592;9.600;2023-08-30T01:30:42;1.80;;;1.70;;
20369;SDS011;10344;47.592;9.600;2023-08-30T01:33:09;1.70;;;1.60;;
20369;SDS011;10344;47.592;9.600;2023-08-30T01:35:46;1.70;;;1.60;;
20369;SDS011;10344;47.592;9.600;2023-08-30T01:38:14;1.60;;;1.50;;
20369;SDS011;10344;47.592;9.600;2023-08-30T01:40:43;1.60;;;1.50;;
20369;SDS011;10344;47.592;9.600;2023-08-30T01:43:09;1.50;;;1.40;;
20369;SDS011;10344;47.592;9.600;2023-08-30T01:45:45;1.80;;;1.70;;
20369;SDS011;10344;47.592;9.600;2023-08-30T01:48:12;1.83;;;1.73;;
20369;SDS011;10344;47.592;9.600;2023-08-30T01:50:43;1.85;;;1.67;;
20369;SDS011;10344;47.592;9.600;2023-08-30T01:53:10;1.70;;;1.60;;
20369;SDS011;10344;47.592;9.600;2023-08-30T01:55:43;1.70;;;1.60;;
20369;SDS011;10344;47.592;9.600;2023-08-30T01:58:11;1.75;;;1.63;;
20369;SDS011;10344;47.592;9.600;2023-08-30T02:00:42;1.70;;;1.60;;
20369;SDS011;10344;47.592;9.600;2023-08-30T02:03:12;1.88;;;1.67;;
20369;SDS011;10344;47.592;9.600;2023-08-30T02:08:50;1.77;;;1.67;;
20369;SDS011;10344;47.592;9.600;2023-08-30T02:11:22;1.70;;;1.60;;
20369;SDS011;10344;47.592;9.600;2023-08-30T02:13:51;1.80;;;1.70;;
20369;SDS011;10344;47.592;9.600;2023-08-30T02:16:22;1.80;;;1.60;;
20369;SDS011;10344;47.592;9.600;2023-08-30T02:18:57;2.05;;;1.85;;
20369;SDS011;10344;47.592;9.600;2023-08-30T02:21:23;1.80;;;1.70;;
20369;SDS011;10344;47.592;9.600;2023-08-30T02:23:52;1.95;;;1.80;;
20369;SDS011;10344;47.592;9.600;2023-08-30T02:26:19;1.70;;;1.60;;
20369;SDS011;10344;47.592;9.600;2023-08-30T02:28:45;1.63;;;1.52;;
20369;SDS011;10344;47.592;9.600;2023-08-30T02:31:11;3.00;;;1.70;;
20369;SDS011;10344;47.592;9.600;2023-08-30T06:06:29;1.20;;;1.10;;
20369;SDS011;10344;47.592;9.600;2023-08-30T06:08:55;1.52;;;1.17;;
20369;SDS011;10344;47.592;9.600;2023-08-30T06:11:20;2.00;;;1.20;;
20369;SDS011;10344;47.592;9.600;2023-08-30T06:13:49;1.38;;;1.27;;
20369;SDS011;10344;47.592;9.600;2023-08-30T06:16:18;1.60;;;1.48;;
20369;SDS011;10344;47.592;9.600;2023-08-30T06:18:44;1.20;;;1.10;;
20369;SDS011;10344;47.592;9.600;2023-08-30T06:21:09;1.30;;;1.13;;
20369;SDS011;10344;47.592;9.600;2023-08-30T06:23:37;2.10;;;1.13;;
20369;SDS011;10344;47.592;9.600;2023-08-30T06:26:03;1.35;;;1.20;;
20369;SDS011;10344;47.592;9.600;2023-08-30T06:28:32;1.48;;;1.38;;
20369;SDS011;10344;47.592;9.600;2023-08-30T06:30:59;1.42;;;1.33;;
20369;SDS011;10344;47.592;9.600;2023-08-30T06:33:24;1.77;;;1.38;;
20369;SDS011;10344;47.592;9.600;2023-08-30T07:07:52;2.03;;;1.83;;
20369;SDS011;10344;47.592;9.600;2023-08-30T07:10:18;1.60;;;1.50;;
20369;SDS011;10344;47.592;9.600;2023-08-30T07:12:46;1.57;;;1.47;;
20369;SDS011;10344;47.592;9.600;2023-08-30T07:15:13;1.50;;;1.40;;
20369;SDS011;10344;47.592;9.600;2023-08-30T07:17:42;1.60;;;1.23;;
20369;SDS011;10344;47.592;9.600;2023-08-30T07:20:08;1.20;;;1.10;;
20369;SDS011;10344;47.592;9.600;2023-08-30T07:22:34;1.10;;;0.80;;
20369;SDS011;10344;47.592;9.600;2023-08-30T07:25:00;0.93;;;0.80;;
20369;SDS011;10344;47.592;9.600;2023-08-30T07:27:33;1.10;;;0.70;;
20369;SDS011;10344;47.592;9.600;2023-08-30T07:30:01;1.52;;;0.90;;
20369;SDS011;10344;47.592;9.600;2023-08-30T07:32:27;0.60;;;0.60;;
20369;SDS011;10344;47.592;9.600;2023-08-30T07:34:56;2.10;;;0.70;;
20369;SDS011;10344;47.592;9.600;2023-08-30T07:37:23;1.13;;;0.70;;
20369;SDS011;10344;47.592;9.600;2023-08-30T07:39:52;1.50;;;0.55;;
20369;SDS011;10344;47.592;9.600;2023-08-30T07:42:20;1.08;;;0.60;;
20369;SDS011;10344;47.592;9.600;2023-08-30T07:44:45;0.82;;;0.60;;
20369;SDS011;10344;47.592;9.600;2023-08-30T07:47:11;0.60;;;0.60;;
20369;SDS011;10344;47.592;9.600;2023-08-30T07:49:37;0.50;;;0.47;;
20369;SDS011;10344;47.592;9.600;2023-08-30T07:52:08;1.30;;;0.60;;
20369;SDS011;10344;47.592;9.600;2023-08-30T07:54:36;0.70;;;0.60;;
20369;SDS011;10344;47.592;9.600;2023-08-30T07:57:08;0.57;;;0.57;;
20369;SDS011;10344;47.592;9.600;2023-08-30T07:59:36;0.55;;;0.55;;
20369;SDS011;10344;47.592;9.600;2023-08-30T08:02:02;0.65;;;0.57;;
20369;SDS011;10344;47.592;9.600;2023-08-30T08:04:31;0.50;;;0.50;;
20369;SDS011;10344;47.592;9.600;2023-08-30T08:07:03;0.85;;;0.55;;
20369;SDS011;10344;47.592;9.600;2023-08-30T08:09:31;0.55;;;0.50;;
20369;SDS011;10344;47.592;9.600;2023-08-30T08:11:59;1.30;;;0.70;;
20369;SDS011;10344;47.592;9.600;2023-08-30T08:14:25;0.60;;;0.60;;
20369;SDS011;10344;47.592;9.600;2023-08-30T08:16:50;1.60;;;0.60;;
20369;SDS011;10344;47.592;9.600;2023-08-30T08:19:19;0.60;;;0.50;;
20369;SDS011;10344;47.592;9.600;2023-08-30T08:21:46;0.57;;;0.57;;
20369;SDS011;10344;47.592;9.600;2023-08-30T08:24:15;0.65;;;0.60;;
20369;SDS011;10344;47.592;9.600;2023-08-30T08:26:41;0.77;;;0.60;;
20369;SDS011;10344;47.592;9.600;2023-08-30T08:29:11;1.80;;;0.80;;
20369;SDS011;10344;47.592;9.600;2023-08-30T08:31:37;1.15;;;0.68;;
20369;SDS011;10344;47.592;9.600;2023-08-30T08:34:08;0.70;;;0.52;;
20369;SDS011;10344;47.592;9.600;2023-08-30T08:36:46;1.33;;;0.60;;
20369;SDS011;10344;47.592;9.600;2023-08-30T08:39:11;0.77;;;0.60;;
20369;SDS011;10344;47.592;9.600;2023-08-30T08:41:42;0.68;;;0.43;;
20369;SDS011;10344;47.592;9.600;2023-08-30T08:44:09;1.30;;;0.90;;
20369;SDS011;10344;47.592;9.600;2023-08-30T08:46:37;1.67;;;0.95;;
20369;SDS011;10344;47.592;9.600;2023-08-30T08:49:16;1.90;;;0.90;;
20369;SDS011;10344;47.592;9.600;2023-08-30T08:51:46;1.38;;;1.05;;
20369;SDS011;10344;47.592;9.600;2023-08-30T08:54:12;1.20;;;0.90;;
20369;SDS011;10344;47.592;9.600;2023-08-30T08:56:38;1.02;;;0.80;;
20369;SDS011;10344;47.592;9.600;2023-08-30T08:59:05;1.35;;;0.80;;
20369;SDS011;10344;47.592;9.600;2023-08-30T09:01:33;0.60;;;0.52;;
20369;SDS011;10344;47.592;9.600;2023-08-30T09:04:05;0.80;;;0.70;;
20369;SDS011;10344;47.592;9.600;2023-08-30T09:06:38;1.10;;;0.65;;
20369;SDS011;10344;47.592;9.600;2023-08-30T09:09:05;0.80;;;0.70;;
20369;SDS011;10344;47.592;9.600;2023-08-30T09:11:33;1.23;;;0.70;;
20369;SDS011;10344;47.592;9.600;2023-08-30T09:13:59;1.15;;;0.70;;
20369;SDS011;10344;47.592;9.600;2023-08-30T09:16:25;0.75;;;0.70;;
20369;SDS011;10344;47.592;9.600;2023-08-30T09:19:00;0.90;;;0.87;;
20369;SDS011;10344;47.592;9.600;2023-08-30T09:21:37;0.93;;;0.90;;
20369;SDS011;10344;47.592;9.600;2023-08-30T09:24:04;1.23;;;0.88;;
20369;SDS011;10344;47.592;9.600;2023-08-30T09:26:31;1.00;;;0.90;;
20369;SDS011;10344;47.592;9.600;2023-08-30T09:29:05;1.30;;;0.93;;
20369;SDS011;10344;47.592;9.600;2023-08-30T09:31:34;2.28;;;1.15;;
20369;SDS011;10344;47.592;9.600;2023-08-30T09:34:03;2.10;;;1.17;;
20369;SDS011;10344;47.592;9.600;2023-08-30T09:36:36;1.27;;;1.00;;
20369;SDS011;10344;47.592;9.600;2023-08-30T09:39:07;1.40;;;1.17;;
20369;SDS011;10344;47.592;9.600;2023-08-30T09:41:37;1.15;;;1.05;;
20369;SDS011;10344;47.592;9.600;2023-08-30T09:44:12;1.33;;;0.90;;
20369;SDS011;10344;47.592;9.600;2023-08-30T09:46:44;0.77;;;0.70;;
20369;SDS011;10344;47.592;9.600;2023-08-30T09:49:26;1.88;;;1.00;;
20369;SDS011;10344;47.592;9.600;2023-08-30T09:51:54;0.70;;;0.70;;
20369;SDS011;10344;47.592;9.600;2023-08-30T09:54:23;1.60;;;1.23;;
20369;SDS011;10344;47.592;9.600;2023-08-30T09:56:50;1.65;;;1.25;;
20369;SDS011;10344;47.592;9.600;2023-08-30T09:59:23;2.45;;;1.33;;
20369;SDS011;10344;47.592;9.600;2023-08-30T10:01:52;1.20;;;1.10;;
20369;SDS011;10344;47.592;9.600;2023-08-30T10:04:20;1.92;;;1.30;;
20369;SDS011;10344;47.592;9.600;2023-08-30T10:06:48;2.90;;;1.50;;
20369;SDS011;10344;47.592;9.600;2023-08-30T10:09:18;1.67;;;1.50;;
20369;SDS011;10344;47.592;9.600;2023-08-30T10:11:44;2.07;;;1.40;;
20369;SDS011;10344;47.592;9.600;2023-08-30T10:14:13;2.63;;;1.80;;
20369;SDS011;10344;47.592;9.600;2023-08-30T10:16:49;1.77;;;1.60;;
20369;SDS011;10344;47.592;9.600;2023-08-30T10:22:01;1.30;;;1.20;;
20369;SDS011;10344;47.592;9.600;2023-08-30T10:24:33;1.50;;;1.40;;
20369;SDS011;10344;47.592;9.600;2023-08-30T10:27:06;1.00;;;1.00;;
20369;SDS011;10344;47.592;9.600;2023-08-30T10:29:39;2.05;;;1.40;;
20369;SDS011;10344;47.592;9.600;2023-08-30T10:32:07;2.58;;;1.17;;
20369;SDS011;10344;47.592;9.600;2023-08-30T10:34:33;1.97;;;1.50;;
20369;SDS011;10344;47.592;9.600;2023-08-30T10:37:00;1.88;;;1.20;;
20369;SDS011;10344;47.592;9.600;2023-08-30T10:39:33;1.17;;;1.08;;
20369;SDS011;10344;47.592;9.600;2023-08-30T10:42:07;0.93;;;0.93;;
20369;SDS011;10344;47.592;9.600;2023-08-30T10:44:56;1.10;;;1.00;;
20369;SDS011;10344;47.592;9.600;2023-08-30T10:47:33;1.35;;;1.20;;
20369;SDS011;10344;47.592;9.600;2023-08-30T10:50:10;1.70;;;1.30;;
20369;SDS011;10344;47.592;9.600;2023-08-30T10:52:36;2.28;;;1.05;;
20369;SDS011;10344;47.592;9.600;2023-08-30T10:55:05;1.17;;;1.08;;
20369;SDS011;10344;47.592;9.600;2023-08-30T10:57:34;1.02;;;1.00;;
20369;SDS011;10344;47.592;9.600;2023-08-30T11:02:30;1.10;;;1.00;;
20369;SDS011;10344;47.592;9.600;2023-08-30T11:04:57;1.08;;;0.90;;
20369;SDS011;10344;47.592;9.600;2023-08-30T11:07:32;1.60;;;1.10;;
20369;SDS011;10344;47.592;9.600;2023-08-30T11:09:58;0.80;;;0.80;;
20369;SDS011;10344;47.592;9.600;2023-08-30T11:12:26;3.03;;;1.10;;
20369;SDS011;10344;47.592;9.600;2023-08-30T11:14:52;0.80;;;0.80;;
20369;SDS011;10344;47.592;9.600;2023-08-30T11:17:18;1.30;;;1.08;;
20369;SDS011;10344;47.592;9.600;2023-08-30T11:19:50;1.00;;;0.90;;
20369;SDS011;10344;47.592;9.600;2023-08-30T11:22:23;0.98;;;0.68;;
20369;SDS011;10344;47.592;9.600;2023-08-30T11:24:50;1.20;;;0.80;;
20369;SDS011;10344;47.592;9.600;2023-08-30T11:27:18;1.00;;;0.80;;
20369;SDS011;10344;47.592;9.600;2023-08-30T11:29:46;1.52;;;1.08;;
20369;SDS011;10344;47.592;9.600;2023-08-30T11:32:14;0.70;;;0.70;;
20369;SDS011;10344;47.592;9.600;2023-08-30T11:34:43;0.98;;;0.90;;
20369;SDS011;10344;47.592;9.600;2023-08-30T11:37:22;1.10;;;0.70;;
20369;SDS011;10344;47.592;9.600;2023-08-30T11:39:51;1.50;;;0.77;;
20369;SDS011;10344;47.592;9.600;2023-08-30T11:42:23;0.63;;;0.63;;
20369;SDS011;10344;47.592;9.600;2023-08-30T11:44:52;1.00;;;0.90;;
20369;SDS011;10344;47.592;9.600;2023-08-30T11:47:21;0.90;;;0.88;;
20369;SDS011;10344;47.592;9.600;2023-08-30T11:49:52;1.58;;;0.70;;
20369;SDS011;10344;47.592;9.600;2023-08-30T11:52:20;0.90;;;0.90;;
20369;SDS011;10344;47.592;9.600;2023-08-30T11:54:48;0.80;;;0.70;;
20369;SDS011;10344;47.592;9.600;2023-08-30T11:57:15;1.63;;;0.90;;
20369;SDS011;10344;47.592;9.600;2023-08-30T11:59:41;2.03;;;0.73;;
20369;SDS011;10344;47.592;9.600;2023-08-30T12:02:07;2.03;;;0.93;;
20369;SDS011;10344;47.592;9.600;2023-08-30T12:04:43;1.00;;;0.70;;
20369;SDS011;10344;47.592;9.600;2023-08-30T12:07:25;1.85;;;0.73;;
20369;SDS011;10344;47.592;9.600;2023-08-30T12:09:51;1.08;;;1.00;;
20369;SDS011;10344;47.592;9.600;2023-08-30T12:12:17;0.82;;;0.73;;
20369;SDS011;10344;47.592;9.600;2023-08-30T12:14:54;0.77;;;0.70;;
20369;SDS011;10344;47.592;9.600;2023-08-30T12:17:23;1.30;;;0.90;;
20369;SDS011;10344;47.592;9.600;2023-08-30T12:19:56;1.40;;;0.60;;
20369;SDS011;10344;47.592;9.600;2023-08-30T12:22:35;1.25;;;0.90;;
20369;SDS011;10344;47.592;9.600;2023-08-30T12:25:02;0.63;;;0.63;;
20369;SDS011;10344;47.592;9.600;2023-08-30T12:27:30;1.20;;;0.80;;
20369;SDS011;10344;47.592;9.600;2023-08-30T12:29:58;0.70;;;0.70;;
20369;SDS011;10344;47.592;9.600;2023-08-30T12:32:23;1.50;;;0.90;;
20369;SDS011;10344;47.592;9.600;2023-08-30T12:34:49;0.98;;;0.77;;
20369;SDS011;10344;47.592;9.600;2023-08-30T12:37:17;2.50;;;0.87;;
20369;SDS011;10344;47.592;9.600;2023-08-30T12:39:42;0.70;;;0.70;;
20369;SDS011;10344;47.592;9.600;2023-08-30T12:42:10;0.95;;;0.80;;
20369;SDS011;10344;47.592;9.600;2023-08-30T12:44:38;1.37;;;0.70;;
20369;SDS011;10344;47.592;9.600;2023-08-30T12:47:06;0.70;;;0.70;;
20369;SDS011;10344;47.592;9.600;2023-08-30T12:49:32;0.63;;;0.63;;
20369;SDS011;10344;47.592;9.600;2023-08-30T12:51:57;0.50;;;0.50;;
20369;SDS011;10344;47.592;9.600;2023-08-30T12:54:23;1.42;;;1.33;;
20369;SDS011;10344;47.592;9.600;2023-08-30T12:56:53;1.60;;;0.90;;
20369;SDS011;10344;47.592;9.600;2023-08-30T12:59:19;1.70;;;0.90;;
20369;SDS011;10344;47.592;9.600;2023-08-30T13:01:47;1.27;;;0.90;;
20369;SDS011;10344;47.592;9.600;2023-08-30T13:04:15;1.15;;;0.95;;
20369;SDS011;10344;47.592;9.600;2023-08-30T13:06:40;0.80;;;0.80;;
20369;SDS011;10344;47.592;9.600;2023-08-30T13:09:06;0.80;;;0.70;;
20369;SDS011;10344;47.592;9.600;2023-08-30T13:11:32;1.80;;;0.90;;
20369;SDS011;10344;47.592;9.600;2023-08-30T13:13:58;1.33;;;0.80;;
20369;SDS011;10344;47.592;9.600;2023-08-30T13:16:24;1.20;;;0.90;;
20369;SDS011;10344;47.592;9.600;2023-08-30T13:18:52;1.20;;;0.90;;
20369;SDS011;10344;47.592;9.600;2023-08-30T13:21:17;0.77;;;0.63;;
20369;SDS011;10344;47.592;9.600;2023-08-30T13:23:43;2.53;;;1.00;;
20369;SDS011;10344;47.592;9.600;2023-08-30T13:26:09;1.30;;;0.80;;
20369;SDS011;10344;47.592;9.600;2023-08-30T13:28:37;1.73;;;1.00;;
20369;SDS011;10344;47.592;9.600;2023-08-30T13:31:03;1.10;;;0.93;;
20369;SDS011;10344;47.592;9.600;2023-08-30T13:33:31;1.15;;;0.90;;
20369;SDS011;10344;47.592;9.600;2023-08-30T13:35:59;1.23;;;1.13;;
20369;SDS011;10344;47.592;9.600;2023-08-30T13:38:25;0.98;;;0.85;;
20369;SDS011;10344;47.592;9.600;2023-08-30T13:40:51;1.10;;;1.00;;
20369;SDS011;10344;47.592;9.600;2023-08-30T13:43:22;0.97;;;0.90;;
20369;SDS011;10344;47.592;9.600;2023-08-30T13:45:56;1.00;;;0.90;;
20369;SDS011;10344;47.592;9.600;2023-08-30T13:48:26;1.17;;;1.03;;
20369;SDS011;10344;47.592;9.600;2023-08-30T13:50:54;1.10;;;0.93;;
20369;SDS011;10344;47.592;9.600;2023-08-30T13:53:20;1.15;;;0.80;;
20369;SDS011;10344;47.592;9.600;2023-08-30T13:55:46;1.10;;;0.80;;
20369;SDS011;10344;47.592;9.600;2023-08-30T13:58:17;1.10;;;1.00;;
20369;SDS011;10344;47.592;9.600;2023-08-30T14:00:45;1.77;;;1.10;;
20369;SDS011;10344;47.592;9.600;2023-08-30T14:03:15;1.30;;;0.90;;
20369;SDS011;10344;47.592;9.600;2023-08-30T14:05:40;1.10;;;1.00;;
20369;SDS011;10344;47.592;9.600;2023-08-30T14:08:08;1.70;;;0.90;;
20369;SDS011;10344;47.592;9.600;2023-08-30T14:10:36;1.00;;;0.90;;
20369;SDS011;10344;47.592;9.600;2023-08-30T14:13:02;1.75;;;1.00;;
20369;SDS011;10344;47.592;9.600;2023-08-30T14:15:28;1.10;;;0.95;;
20369;SDS011;10344;47.592;9.600;2023-08-30T14:17:54;1.10;;;1.00;;
20369;SDS011;10344;47.592;9.600;2023-08-30T14:20:19;1.13;;;1.00;;
20369;SDS011;10344;47.592;9.600;2023-08-30T14:22:45;2.00;;;0.90;;
20369;SDS011;10344;47.592;9.600;2023-08-30T14:25:10;2.33;;;1.10;;
20369;SDS011;10344;47.592;9.600;2023-08-30T14:27:38;0.80;;;0.80;;
20369;SDS011;10344;47.592;9.600;2023-08-30T14:30:04;0.97;;;0.93;;
20369;SDS011;10344;47.592;9.600;2023-08-30T14:32:30;1.10;;;0.93;;
20369;SDS011;10344;47.592;9.600;2023-08-30T14:34:56;1.10;;;1.00;;
20369;SDS011;10344;47.592;9.600;2023-08-30T14:37:22;1.50;;;0.82;;
20369;SDS011;10344;47.592;9.600;2023-08-30T14:39:48;1.33;;;0.93;;
20369;SDS011;10344;47.592;9.600;2023-08-30T14:42:17;1.02;;;0.98;;
20369;SDS011;10344;47.592;9.600;2023-08-30T14:44:45;1.70;;;1.10;;
20369;SDS011;10344;47.592;9.600;2023-08-30T14:47:14;1.00;;;0.90;;
20369;SDS011;10344;47.592;9.600;2023-08-30T14:49:40;1.20;;;1.10;;
20369;SDS011;10344;47.592;9.600;2023-08-30T14:52:07;1.10;;;1.00;;
20369;SDS011;10344;47.592;9.600;2023-08-30T14:54:33;2.28;;;1.20;;
20369;SDS011;10344;47.592;9.600;2023-08-30T14:57:04;1.50;;;1.20;;
20369;SDS011;10344;47.592;9.600;2023-08-30T14:59:29;1.17;;;1.07;;
20369;SDS011;10344;47.592;9.600;2023-08-30T15:01:55;1.15;;;1.10;;
20369;SDS011;10344;47.592;9.600;2023-08-30T15:04:23;1.13;;;1.00;;
20369;SDS011;10344;47.592;9.600;2023-08-30T15:06:48;1.45;;;1.02;;
20369;SDS011;10344;47.592;9.600;2023-08-30T15:09:14;1.50;;;1.03;;
20369;SDS011;10344;47.592;9.600;2023-08-30T15:11:41;1.67;;;1.20;;
20369;SDS011;10344;47.592;9.600;2023-08-30T15:14:07;1.40;;;1.10;;
20369;SDS011;10344;47.592;9.600;2023-08-30T15:16:33;1.17;;;1.03;;
20369;SDS011;10344;47.592;9.600;2023-08-30T15:18:59;1.52;;;1.10;;
20369;SDS011;10344;47.592;9.600;2023-08-30T15:21:25;2.58;;;1.30;;
20369;SDS011;10344;47.592;9.600;2023-08-30T15:23:50;1.77;;;1.20;;
20369;SDS011;10344;47.592;9.600;2023-08-30T15:26:21;0.93;;;0.90;;
20369;SDS011;10344;47.592;9.600;2023-08-30T15:28:47;1.13;;;1.00;;
20369;SDS011;10344;47.592;9.600;2023-08-30T15:31:16;1.60;;;1.15;;
20369;SDS011;10344;47.592;9.600;2023-08-30T15:33:45;1.05;;;0.93;;
20369;SDS011;10344;47.592;9.600;2023-08-30T15:36:11;1.17;;;1.00;;
20369;SDS011;10344;47.592;9.600;2023-08-30T15:38:37;0.93;;;0.90;;
20369;SDS011;10344;47.592;9.600;2023-08-30T15:41:08;1.47;;;1.00;;
20369;SDS011;10344;47.592;9.600;2023-08-30T15:43:34;1.38;;;1.00;;
20369;SDS011;10344;47.592;9.600;2023-08-30T15:46:07;1.00;;;0.90;;
20369;SDS011;10344;47.592;9.600;2023-08-30T15:48:34;1.10;;;0.93;;
20369;SDS011;10344;47.592;9.600;2023-08-30T15:51:05;1.27;;;1.10;;
20369;SDS011;10344;47.592;9.600;2023-08-30T15:53:34;1.80;;;1.20;;
20369;SDS011;10344;47.592;9.600;2023-08-30T15:56:04;1.50;;;1.40;;
20369;SDS011;10344;47.592;9.600;2023-08-30T15:58:30;1.40;;;1.10;;
20369;SDS011;10344;47.592;9.600;2023-08-30T16:01:05;1.98;;;1.40;;
20369;SDS011;10344;47.592;9.600;2023-08-30T16:03:34;1.92;;;1.30;;
20369;SDS011;10344;47.592;9.600;2023-08-30T16:06:04;1.45;;;1.30;;
20369;SDS011;10344;47.592;9.600;2023-08-30T16:08:30;1.20;;;1.10;;
20369;SDS011;10344;47.592;9.600;2023-08-30T16:10:56;1.70;;;1.20;;
20369;SDS011;10344;47.592;9.600;2023-08-30T16:13:21;1.20;;;1.10;;
20369;SDS011;10344;47.592;9.600;2023-08-30T16:15:47;0.90;;;0.90;;
20369;SDS011;10344;47.592;9.600;2023-08-30T16:18:15;1.30;;;1.20;;
20369;SDS011;10344;47.592;9.600;2023-08-30T16:20:41;1.30;;;1.17;;
20369;SDS011;10344;47.592;9.600;2023-08-30T16:23:06;1.27;;;1.17;;
20369;SDS011;10344;47.592;9.600;2023-08-30T16:25:34;2.28;;;1.35;;
20369;SDS011;10344;47.592;9.600;2023-08-30T16:28:05;1.30;;;1.20;;
20369;SDS011;10344;47.592;9.600;2023-08-30T16:30:33;1.53;;;1.10;;
20369;SDS011;10344;47.592;9.600;2023-08-30T16:32:59;1.27;;;1.17;;
20369;SDS011;10344;47.592;9.600;2023-08-30T16:35:24;2.00;;;1.20;;
20369;SDS011;10344;47.592;9.600;2023-08-30T16:37:52;1.20;;;1.07;;
20369;SDS011;10344;47.592;9.600;2023-08-30T16:40:18;2.17;;;1.20;;
20369;SDS011;10344;47.592;9.600;2023-08-30T16:42:43;1.55;;;1.17;;
20369;SDS011;10344;47.592;9.600;2023-08-30T16:45:09;1.08;;;1.00;;
20369;SDS011;10344;47.592;9.600;2023-08-30T16:47:35;1.38;;;1.23;;
20369;SDS011;10344;47.592;9.600;2023-08-30T16:50:05;1.30;;;1.20;;
20369;SDS011;10344;47.592;9.600;2023-08-30T16:52:31;1.07;;;1.07;;
20369;SDS011;10344;47.592;9.600;2023-08-30T16:54:57;2.00;;;1.20;;
20369;SDS011;10344;47.592;9.600;2023-08-30T16:57:23;2.10;;;1.30;;
20369;SDS011;10344;47.592;9.600;2023-08-30T16:59:53;2.45;;;1.60;;
20369;SDS011;10344;47.592;9.600;2023-08-30T17:02:21;2.00;;;1.50;;
20369;SDS011;10344;47.592;9.600;2023-08-30T17:04:47;1.70;;;1.50;;
20369;SDS011;10344;47.592;9.600;2023-08-30T17:07:13;2.17;;;1.50;;
20369;SDS011;10344;47.592;9.600;2023-08-30T17:09:38;1.63;;;1.53;;
20369;SDS011;10344;47.592;9.600;2023-08-30T17:12:04;1.97;;;1.73;;
20369;SDS011;10344;47.592;9.600;2023-08-30T17:14:31;1.88;;;1.65;;
20369;SDS011;10344;47.592;9.600;2023-08-30T17:16:57;1.80;;;1.55;;
20369;SDS011;10344;47.592;9.600;2023-08-30T17:19:26;1.77;;;1.65;;
20369;SDS011;10344;47.592;9.600;2023-08-30T17:21:54;1.85;;;1.60;;
20369;SDS011;10344;47.592;9.600;2023-08-30T17:24:22;2.27;;;1.70;;
20369;SDS011;10344;47.592;9.600;2023-08-30T17:26:48;2.03;;;1.80;;
20369;SDS011;10344;47.592;9.600;2023-08-30T17:29:14;2.60;;;1.70;;
20369;SDS011;10344;47.592;9.600;2023-08-30T17:31:40;1.50;;;1.40;;
20369;SDS011;10344;47.592;9.600;2023-08-30T17:34:06;1.50;;;1.40;;
20369;SDS011;10344;47.592;9.600;2023-08-30T17:36:32;1.90;;;1.70;;
20369;SDS011;10344;47.592;9.600;2023-08-30T17:39:00;1.67;;;1.58;;
20369;SDS011;10344;47.592;9.600;2023-08-30T17:41:26;2.50;;;2.13;;
20369;SDS011;10344;47.592;9.600;2023-08-30T17:43:53;3.13;;;2.10;;
20369;SDS011;10344;47.592;9.600;2023-08-30T17:46:21;2.65;;;2.20;;
20369;SDS011;10344;47.592;9.600;2023-08-30T17:48:47;2.57;;;2.00;;
20369;SDS011;10344;47.592;9.600;2023-08-30T17:51:12;2.33;;;2.10;;
20369;SDS011;10344;47.592;9.600;2023-08-30T17:53:41;2.03;;;1.67;;
20369;SDS011;10344;47.592;9.600;2023-08-30T17:56:06;2.00;;;1.80;;
20369;SDS011;10344;47.592;9.600;2023-08-30T17:58:32;2.20;;;2.00;;
20369;SDS011;10344;47.592;9.600;2023-08-30T18:00:58;2.07;;;1.87;;
20369;SDS011;10344;47.592;9.600;2023-08-30T18:03:24;2.10;;;1.90;;
20369;SDS011;10344;47.592;9.600;2023-08-30T18:06:03;1.87;;;1.70;;
20369;SDS011;10344;47.592;9.600;2023-08-30T18:08:29;2.80;;;1.70;;
20369;SDS011;10344;47.592;9.600;2023-08-30T18:10:55;1.80;;;1.67;;
20369;SDS011;10344;47.592;9.600;2023-08-30T18:13:23;2.00;;;1.80;;
20369;SDS011;10344;47.592;9.600;2023-08-30T18:15:49;3.00;;;1.70;;
20369;SDS011;10344;47.592;9.600;2023-08-30T18:18:15;1.90;;;1.70;;
20369;SDS011;10344;47.592;9.600;2023-08-30T18:20:41;1.77;;;1.67;;
20369;SDS011;10344;47.592;9.600;2023-08-30T18:23:09;2.33;;;1.63;;
20369;SDS011;10344;47.592;9.600;2023-08-30T18:25:34;1.63;;;1.52;;
20369;SDS011;10344;47.592;9.600;2023-08-30T18:28:02;1.63;;;1.50;;
20369;SDS011;10344;47.592;9.600;2023-08-30T18:30:30;2.83;;;1.80;;
20369;SDS011;10344;47.592;9.600;2023-08-30T18:32:56;1.80;;;1.70;;
20369;SDS011;10344;47.592;9.600;2023-08-30T18:35:22;1.83;;;1.70;;
20369;SDS011;10344;47.592;9.600;2023-08-30T18:37:47;1.85;;;1.67;;
20369;SDS011;10344;47.592;9.600;2023-08-30T18:40:13;1.50;;;1.40;;
20369;SDS011;10344;47.592;9.600;2023-08-30T18:42:41;2.38;;;1.60;;
20369;SDS011;10344;47.592;9.600;2023-08-30T18:45:07;1.60;;;1.50;;
20369;SDS011;10344;47.592;9.600;2023-08-30T18:47:33;2.00;;;1.50;;
20369;SDS011;10344;47.592;9.600;2023-08-30T18:49:59;2.03;;;1.80;;
20369;SDS011;10344;47.592;9.600;2023-08-30T18:52:24;2.70;;;1.90;;
20369;SDS011;10344;47.592;9.600;2023-08-30T18:54:54;2.22;;;1.90;;
20369;SDS011;10344;47.592;9.600;2023-08-30T18:57:20;1.90;;;1.70;;
20369;SDS011;10344;47.592;9.600;2023-08-30T18:59:46;2.40;;;1.90;;
20369;SDS011;10344;47.592;9.600;2023-08-30T19:02:11;2.40;;;1.87;;
20369;SDS011;10344;47.592;9.600;2023-08-30T19:04:39;2.42;;;1.90;;
20369;SDS011;10344;47.592;9.600;2023-08-30T19:07:07;2.20;;;2.00;;
20369;SDS011;10344;47.592;9.600;2023-08-30T19:09:35;2.00;;;1.90;;
20369;SDS011;10344;47.592;9.600;2023-08-30T19:12:01;2.20;;;2.00;;